Time,TemperatureF,DewpointF,PressureIn,WindDirection,WindDirectionDegrees,WindSpeedMPH,WindSpeedGustMPH,Humidity,HourlyPrecipIn,Conditions,Clouds,dailyrainin,SolarRadiationWatts/m^2,SoftwareType,DateUTC
2013-03-11 00:02:00,68.0,64.0,-100.00,West,266,6.0,10.0,86,0.00,,,0.00,0.000000,,2013-03-11 10:02:00,
2013-03-11 00:12:00,68.0,64.0,-100.00,West,266,6.0,10.0,86,0.00,,,0.00,0.000000,,2013-03-11 10:12:00,
2013-03-11 00:21:00,68.0,64.0,-100.00,West,266,6.0,10.0,86,0.00,,,0.00,0.000000,,2013-03-11 10:21:00,
2013-03-11 00:32:00,68.0,64.0,-100.00,West,266,6.0,10.0,86,0.00,,,0.00,0.000000,,2013-03-11 10:32:00,
2013-03-11 01:02:00,67.0,64.0,-100.00,NW,313,6.0,11.0,91,0.00,,,0.00,0.000000,,2013-03-11 11:02:00,
2013-03-11 01:12:00,67.0,64.0,-100.00,NW,313,6.0,11.0,91,0.00,,,0.00,0.000000,,2013-03-11 11:12:00,
2013-03-11 01:22:00,67.0,64.0,-100.00,NW,313,6.0,11.0,91,0.00,,,0.00,0.000000,,2013-03-11 11:22:00,
2013-03-11 01:32:00,67.0,64.0,-100.00,NW,313,6.0,11.0,91,0.00,,,0.00,0.000000,,2013-03-11 11:32:00,
2013-03-11 02:02:00,67.0,64.0,-100.00,NW,314,4.0,9.0,89,0.00,,,-99.99,0.000000,,2013-03-11 12:02:00,
2013-03-11 02:12:00,67.0,64.0,-100.00,NW,314,4.0,9.0,89,0.00,,,-99.99,0.000000,,2013-03-11 12:12:00,
2013-03-11 02:22:00,67.0,64.0,-100.00,NW,314,4.0,9.0,89,0.00,,,-99.99,0.000000,,2013-03-11 12:22:00,
2013-03-11 02:32:00,67.0,64.0,-100.00,NW,314,4.0,9.0,89,0.00,,,-99.99,0.000000,,2013-03-11 12:32:00,
2013-03-11 03:02:00,67.0,63.0,-100.00,NNE,15,4.0,7.0,88,0.00,,,-99.99,0.000000,,2013-03-11 13:02:00,
2013-03-11 03:12:00,67.0,63.0,-100.00,NNE,15,4.0,7.0,88,0.00,,,-99.99,0.000000,,2013-03-11 13:12:00,
2013-03-11 03:22:00,67.0,63.0,-100.00,NNE,15,4.0,7.0,88,0.00,,,-99.99,0.000000,,2013-03-11 13:22:00,
2013-03-11 03:32:00,67.0,63.0,-100.00,NNE,15,4.0,7.0,88,0.00,,,-99.99,0.000000,,2013-03-11 13:32:00,
2013-03-11 04:02:00,66.0,62.0,-100.00,East,82,1.0,8.0,87,0.00,,,0.00,0.000000,,2013-03-11 14:02:00,
2013-03-11 04:12:00,66.0,62.0,-100.00,East,82,1.0,8.0,87,0.00,,,0.00,0.000000,,2013-03-11 14:12:00,
2013-03-11 04:22:00,66.0,62.0,-100.00,East,82,1.0,8.0,87,0.00,,,0.00,0.000000,,2013-03-11 14:22:00,
2013-03-11 04:32:00,66.0,62.0,-100.00,East,82,1.0,8.0,87,0.00,,,0.00,0.000000,,2013-03-11 14:32:00,
2013-03-11 05:02:00,66.0,62.0,-100.00,North,10,3.0,6.0,87,0.00,,,0.00,0.000000,,2013-03-11 15:02:00,
2013-03-11 05:12:00,66.0,62.0,-100.00,North,10,3.0,6.0,87,0.00,,,0.00,0.000000,,2013-03-11 15:12:00,
2013-03-11 05:22:00,66.0,62.0,-100.00,North,10,3.0,6.0,87,0.00,,,0.00,0.000000,,2013-03-11 15:22:00,
2013-03-11 05:32:00,66.0,62.0,-100.00,North,10,3.0,6.0,87,0.00,,,0.00,0.000000,,2013-03-11 15:32:00,
2013-03-11 06:02:00,66.0,61.0,-100.00,ENE,72,3.0,6.0,83,0.00,,,0.00,0.000000,,2013-03-11 16:02:00,
2013-03-11 06:12:00,66.0,61.0,-100.00,ENE,72,3.0,6.0,83,0.00,,,0.00,0.000000,,2013-03-11 16:12:00,
2013-03-11 06:22:00,66.0,61.0,-100.00,ENE,72,3.0,6.0,83,0.00,,,0.00,0.000000,,2013-03-11 16:22:00,
2013-03-11 06:32:00,66.0,61.0,-100.00,ENE,72,3.0,6.0,83,0.00,,,0.00,0.000000,,2013-03-11 16:32:00,
2013-03-11 06:52:00,65.0,59.0,-100.00,NE,39,4.0,7.0,82,0.00,,,-99.99,0.000000,,2013-03-11 16:52:00,
2013-03-11 07:02:00,65.0,59.0,-100.00,NE,39,4.0,7.0,82,0.00,,,-99.99,0.000000,,2013-03-11 17:02:00,
2013-03-11 07:13:00,65.0,59.0,-100.00,NE,39,4.0,7.0,82,0.00,,,-99.99,0.000000,,2013-03-11 17:13:00,
2013-03-11 07:24:00,65.0,59.0,-100.00,NE,39,4.0,7.0,82,0.00,,,-99.99,0.000000,,2013-03-11 17:24:00,
2013-03-11 07:33:00,65.0,59.0,-100.00,NE,39,4.0,7.0,82,0.00,,,-99.99,0.000000,,2013-03-11 17:33:00,
2013-03-11 08:02:00,65.0,59.0,-100.00,NE,44,3.0,6.0,81,0.00,,,-99.99,31.000000,,2013-03-11 18:02:00,
2013-03-11 08:12:00,65.0,59.0,-100.00,NE,44,3.0,6.0,81,0.00,,,-99.99,31.000000,,2013-03-11 18:12:00,
2013-03-11 08:22:00,65.0,59.0,-100.00,NE,44,3.0,6.0,81,0.00,,,-99.99,31.000000,,2013-03-11 18:22:00,
2013-03-11 08:32:00,65.0,59.0,-100.00,NE,44,3.0,6.0,81,0.00,,,-99.99,31.000000,,2013-03-11 18:32:00,
2013-03-11 09:02:00,72.0,61.0,-100.00,SE,127,4.0,7.0,69,0.00,,,0.00,354.000000,,2013-03-11 19:02:00,
2013-03-11 09:12:00,72.0,61.0,-100.00,SE,127,4.0,7.0,69,0.00,,,0.00,354.000000,,2013-03-11 19:12:00,
2013-03-11 09:22:00,72.0,61.0,-100.00,SE,127,4.0,7.0,69,0.00,,,0.00,354.000000,,2013-03-11 19:22:00,
2013-03-11 09:32:00,72.0,61.0,-100.00,SE,127,4.0,7.0,69,0.00,,,0.00,354.000000,,2013-03-11 19:32:00,
2013-03-11 10:02:00,73.0,60.0,-100.00,West,270,4.0,8.0,64,0.00,,,0.00,572.000000,,2013-03-11 20:02:00,
2013-03-11 10:12:00,73.0,60.0,-100.00,West,270,4.0,8.0,64,0.00,,,0.00,572.000000,,2013-03-11 20:12:00,
2013-03-11 10:22:00,73.0,60.0,-100.00,West,270,4.0,8.0,64,0.00,,,0.00,572.000000,,2013-03-11 20:22:00,
2013-03-11 10:32:00,73.0,60.0,-100.00,West,270,4.0,8.0,64,0.00,,,0.00,572.000000,,2013-03-11 20:32:00,
2013-03-11 11:02:00,77.0,61.0,-100.00,SW,215,6.0,12.0,58,0.00,,,0.00,815.000000,,2013-03-11 21:02:00,
2013-03-11 11:12:00,77.0,61.0,-100.00,SW,215,6.0,12.0,58,0.00,,,0.00,815.000000,,2013-03-11 21:12:00,
2013-03-11 11:22:00,77.0,61.0,-100.00,SW,215,6.0,12.0,58,0.00,,,0.00,815.000000,,2013-03-11 21:22:00,
2013-03-11 11:32:00,77.0,61.0,-100.00,SW,215,6.0,12.0,58,0.00,,,0.00,815.000000,,2013-03-11 21:32:00,
2013-03-11 11:53:00,77.0,58.0,-100.00,SW,235,9.0,14.0,52,0.00,,,0.00,946.000000,,2013-03-11 21:53:00,
2013-03-11 12:02:00,77.0,58.0,-100.00,SW,235,9.0,14.0,52,0.00,,,0.00,946.000000,,2013-03-11 22:02:00,
2013-03-11 12:12:00,77.0,58.0,-100.00,SW,235,9.0,14.0,52,0.00,,,0.00,946.000000,,2013-03-11 22:12:00,
2013-03-11 12:22:00,77.0,58.0,-100.00,SW,235,9.0,14.0,52,0.00,,,0.00,946.000000,,2013-03-11 22:22:00,
2013-03-11 12:32:00,77.0,58.0,-100.00,SW,235,9.0,14.0,52,0.00,,,0.00,946.000000,,2013-03-11 22:32:00,
2013-03-11 13:02:00,78.0,59.0,-100.00,SW,229,9.0,15.0,53,0.00,,,0.00,1086.000000,,2013-03-11 23:02:00,
2013-03-11 13:12:00,78.0,59.0,-100.00,SW,229,9.0,15.0,53,0.00,,,0.00,1086.000000,,2013-03-11 23:12:00,
2013-03-11 13:22:00,78.0,59.0,-100.00,SW,229,9.0,15.0,53,0.00,,,0.00,1086.000000,,2013-03-11 23:22:00,
2013-03-11 13:32:00,78.0,59.0,-100.00,SW,229,9.0,15.0,53,0.00,,,0.00,1086.000000,,2013-03-11 23:32:00,
2013-03-11 14:02:00,77.0,60.0,-100.00,WSW,243,10.0,17.0,55,0.00,,,0.00,1095.000000,,2013-03-12 00:02:00,
2013-03-11 14:12:00,77.0,60.0,-100.00,WSW,243,10.0,17.0,55,0.00,,,0.00,1095.000000,,2013-03-12 00:12:00,
2013-03-11 14:22:00,77.0,60.0,-100.00,WSW,243,10.0,17.0,55,0.00,,,0.00,1095.000000,,2013-03-12 00:22:00,
2013-03-11 14:32:00,77.0,60.0,-100.00,WSW,243,10.0,17.0,55,0.00,,,0.00,1095.000000,,2013-03-12 00:32:00,
2013-03-11 15:02:00,77.0,60.0,-100.00,SW,230,10.0,16.0,55,0.00,,,0.00,801.000000,,2013-03-12 01:02:00,
2013-03-11 15:12:00,77.0,60.0,-100.00,SW,230,10.0,16.0,55,0.00,,,0.00,801.000000,,2013-03-12 01:12:00,
2013-03-11 15:22:00,77.0,60.0,-100.00,SW,230,10.0,16.0,55,0.00,,,0.00,801.000000,,2013-03-12 01:22:00,
2013-03-11 15:32:00,77.0,60.0,-100.00,SW,230,10.0,16.0,55,0.00,,,0.00,801.000000,,2013-03-12 01:32:00,
2013-03-11 16:02:00,76.0,61.0,-100.00,West,264,7.0,16.0,60,0.00,,,0.00,441.000000,,2013-03-12 02:02:00,
2013-03-11 16:12:00,76.0,61.0,-100.00,West,264,7.0,16.0,60,0.00,,,0.00,441.000000,,2013-03-12 02:12:00,
2013-03-11 16:22:00,76.0,61.0,-100.00,West,264,7.0,16.0,60,0.00,,,0.00,441.000000,,2013-03-12 02:22:00,
2013-03-11 16:32:00,76.0,61.0,-100.00,West,264,7.0,16.0,60,0.00,,,0.00,441.000000,,2013-03-12 02:32:00,
2013-03-11 17:02:00,75.0,58.0,-100.00,SW,235,8.0,16.0,56,0.00,,,0.00,594.000000,,2013-03-12 03:02:00,
2013-03-11 17:12:00,75.0,58.0,-100.00,SW,235,8.0,16.0,56,0.00,,,0.00,594.000000,,2013-03-12 03:12:00,
2013-03-11 17:22:00,75.0,58.0,-100.00,SW,235,8.0,16.0,56,0.00,,,0.00,594.000000,,2013-03-12 03:22:00,
2013-03-11 17:32:00,75.0,58.0,-100.00,SW,235,8.0,16.0,56,0.00,,,0.00,594.000000,,2013-03-12 03:32:00,
2013-03-11 18:02:00,73.0,58.0,-100.00,West,265,9.0,14.0,60,0.00,,,0.00,188.000000,,2013-03-12 04:02:00,
2013-03-11 18:12:00,73.0,58.0,-100.00,West,265,9.0,14.0,60,0.00,,,0.00,188.000000,,2013-03-12 04:12:00,
2013-03-11 18:22:00,73.0,58.0,-100.00,West,265,9.0,14.0,60,0.00,,,0.00,188.000000,,2013-03-12 04:22:00,
2013-03-11 18:32:00,73.0,58.0,-100.00,West,265,9.0,14.0,60,0.00,,,0.00,188.000000,,2013-03-12 04:32:00,
2013-03-11 19:02:00,72.0,60.0,-100.00,WNW,301,6.0,13.0,66,0.00,,,0.00,61.000000,,2013-03-12 05:02:00,
2013-03-11 19:12:00,72.0,60.0,-100.00,WNW,301,6.0,13.0,66,0.00,,,0.00,61.000000,,2013-03-12 05:12:00,
2013-03-11 19:21:00,72.0,60.0,-100.00,WNW,301,6.0,13.0,66,0.00,,,0.00,61.000000,,2013-03-12 05:21:00,
2013-03-11 19:32:00,72.0,60.0,-100.00,WNW,301,6.0,13.0,66,0.00,,,0.00,61.000000,,2013-03-12 05:32:00,
2013-03-11 20:02:00,70.0,59.0,-100.00,NNW,346,6.0,9.0,69,0.00,,,0.00,0.000000,,2013-03-12 06:02:00,
2013-03-11 20:12:00,70.0,59.0,-100.00,NNW,346,6.0,9.0,69,0.00,,,0.00,0.000000,,2013-03-12 06:12:00,
2013-03-11 20:22:00,70.0,59.0,-100.00,NNW,346,6.0,9.0,69,0.00,,,0.00,0.000000,,2013-03-12 06:22:00,
2013-03-11 20:31:00,70.0,59.0,-100.00,NNW,346,6.0,9.0,69,0.00,,,0.00,0.000000,,2013-03-12 06:31:00,
2013-03-11 21:02:00,67.0,65.0,-100.00,NE,49,5.0,10.0,92,0.09,,,0.09,0.000000,,2013-03-12 07:02:00,
2013-03-11 21:12:00,67.0,65.0,-100.00,NE,49,5.0,10.0,92,0.09,,,0.09,0.000000,,2013-03-12 07:12:00,
2013-03-11 21:21:00,67.0,65.0,-100.00,NE,49,5.0,10.0,92,0.09,,,0.09,0.000000,,2013-03-12 07:21:00,
2013-03-11 21:32:00,67.0,65.0,-100.00,NE,49,5.0,10.0,92,0.09,,,0.09,0.000000,,2013-03-12 07:32:00,
2013-03-11 22:02:00,69.0,63.0,-100.00,East,89,3.0,11.0,80,0.01,,,0.10,0.000000,,2013-03-12 08:02:00,
2013-03-11 22:12:00,69.0,63.0,-100.00,East,89,3.0,11.0,80,0.01,,,0.10,0.000000,,2013-03-12 08:12:00,
2013-03-11 22:22:00,69.0,63.0,-100.00,East,89,3.0,11.0,80,0.01,,,0.10,0.000000,,2013-03-12 08:22:00,
2013-03-11 22:32:00,69.0,63.0,-100.00,East,89,3.0,11.0,80,0.01,,,0.10,0.000000,,2013-03-12 08:32:00,
2013-03-11 23:03:00,66.0,64.0,-100.00,NE,38,5.0,12.0,93,0.03,,,0.13,0.000000,,2013-03-12 09:03:00,
2013-03-11 23:11:00,66.0,64.0,-100.00,NE,38,5.0,12.0,93,0.03,,,0.13,0.000000,,2013-03-12 09:11:00,
2013-03-11 23:22:00,66.0,64.0,-100.00,NE,38,5.0,12.0,93,0.03,,,0.13,0.000000,,2013-03-12 09:22:00,
2013-03-11 23:32:00,66.0,64.0,-100.00,NE,38,5.0,12.0,93,0.03,,,0.13,0.000000,,2013-03-12 09:32:00,